sensor_id;sensor_type;location;lat;lon;timestamp;temperature;humidity
7502;DHT22;3792;47.740;7.606;2023-06-22T00:00:14;21.30;99.90
7502;DHT22;3792;47.740;7.606;2023-06-22T00:02:41;21.30;99.90
7502;DHT22;3792;47.740;7.606;2023-06-22T00:05:08;21.30;99.90
7502;DHT22;3792;47.740;7.606;2023-06-22T00:07:37;21.30;99.90
7502;DHT22;3792;47.740;7.606;2023-06-22T00:10:04;21.20;99.90
7502;DHT22;3792;47.740;7.606;2023-06-22T00:12:32;21.20;99.90
7502;DHT22;3792;47.740;7.606;2023-06-22T00:14:59;21.20;99.90
7502;DHT22;3792;47.740;7.606;2023-06-22T00:17:26;21.20;99.90
7502;DHT22;3792;47.740;7.606;2023-06-22T00:19:53;21.10;99.90
7502;DHT22;3792;47.740;7.606;2023-06-22T00:22:20;21.10;99.90
7502;DHT22;3792;47.740;7.606;2023-06-22T00:24:55;21.10;99.90
7502;DHT22;3792;47.740;7.606;2023-06-22T00:27:22;21.20;99.90
7502;DHT22;3792;47.740;7.606;2023-06-22T00:29:49;21.20;99.90
7502;DHT22;3792;47.740;7.606;2023-06-22T00:32:16;21.30;99.90
7502;DHT22;3792;47.740;7.606;2023-06-22T00:34:44;21.20;99.90
7502;DHT22;3792;47.740;7.606;2023-06-22T00:37:11;21.30;99.90
7502;DHT22;3792;47.740;7.606;2023-06-22T00:39:38;21.30;99.90
7502;DHT22;3792;47.740;7.606;2023-06-22T00:42:07;21.30;99.90
7502;DHT22;3792;47.740;7.606;2023-06-22T00:44:34;21.20;99.90
7502;DHT22;3792;47.740;7.606;2023-06-22T00:47:02;21.20;99.90
7502;DHT22;3792;47.740;7.606;2023-06-22T00:49:29;21.30;99.90
7502;DHT22;3792;47.740;7.606;2023-06-22T00:51:57;21.20;99.90
7502;DHT22;3792;47.740;7.606;2023-06-22T00:54:24;21.20;99.90
7502;DHT22;3792;47.740;7.606;2023-06-22T00:56:52;21.10;99.90
7502;DHT22;3792;47.740;7.606;2023-06-22T00:59:23;21.10;99.90
7502;DHT22;3792;47.740;7.606;2023-06-22T01:01:51;21.20;99.90
7502;DHT22;3792;47.740;7.606;2023-06-22T01:04:18;21.20;99.90
7502;DHT22;3792;47.740;7.606;2023-06-22T01:06:50;21.00;99.90
7502;DHT22;3792;47.740;7.606;2023-06-22T01:09:27;20.90;99.90
7502;DHT22;3792;47.740;7.606;2023-06-22T01:11:59;21.00;99.90
7502;DHT22;3792;47.740;7.606;2023-06-22T01:14:31;21.00;99.90
7502;DHT22;3792;47.740;7.606;2023-06-22T01:17:05;20.90;99.90
7502;DHT22;3792;47.740;7.606;2023-06-22T01:19:39;20.90;99.90
7502;DHT22;3792;47.740;7.606;2023-06-22T01:22:08;20.90;99.90
7502;DHT22;3792;47.740;7.606;2023-06-22T01:24:48;20.90;99.90
7502;DHT22;3792;47.740;7.606;2023-06-22T01:27:27;20.90;99.90
7502;DHT22;3792;47.740;7.606;2023-06-22T01:29:57;21.00;99.90
7502;DHT22;3792;47.740;7.606;2023-06-22T01:32:27;20.90;99.90
7502;DHT22;3792;47.740;7.606;2023-06-22T01:34:55;20.90;99.90
7502;DHT22;3792;47.740;7.606;2023-06-22T01:37:23;20.70;99.90
7502;DHT22;3792;47.740;7.606;2023-06-22T01:39:50;20.60;99.90
7502;DHT22;3792;47.740;7.606;2023-06-22T01:42:18;20.60;99.90
7502;DHT22;3792;47.740;7.606;2023-06-22T01:44:45;20.70;99.90
7502;DHT22;3792;47.740;7.606;2023-06-22T01:47:14;20.70;99.90
7502;DHT22;3792;47.740;7.606;2023-06-22T01:49:41;20.50;99.90
7502;DHT22;3792;47.740;7.606;2023-06-22T01:52:08;20.50;99.90
7502;DHT22;3792;47.740;7.606;2023-06-22T01:54:39;20.50;99.90
7502;DHT22;3792;47.740;7.606;2023-06-22T01:57:07;20.40;99.90
7502;DHT22;3792;47.740;7.606;2023-06-22T01:59:38;20.50;99.90
7502;DHT22;3792;47.740;7.606;2023-06-22T02:02:09;20.50;99.90
7502;DHT22;3792;47.740;7.606;2023-06-22T02:04:43;20.60;99.90
7502;DHT22;3792;47.740;7.606;2023-06-22T02:07:14;20.70;99.90
7502;DHT22;3792;47.740;7.606;2023-06-22T02:09:44;20.70;99.90
7502;DHT22;3792;47.740;7.606;2023-06-22T02:12:15;20.70;99.90
7502;DHT22;3792;47.740;7.606;2023-06-22T02:14:44;20.60;99.90
7502;DHT22;3792;47.740;7.606;2023-06-22T02:17:12;20.60;99.90
7502;DHT22;3792;47.740;7.606;2023-06-22T02:19:42;20.60;99.90
7502;DHT22;3792;47.740;7.606;2023-06-22T02:22:10;20.60;99.90
7502;DHT22;3792;47.740;7.606;2023-06-22T02:24:37;20.60;99.90
7502;DHT22;3792;47.740;7.606;2023-06-22T02:27:04;20.70;99.90
7502;DHT22;3792;47.740;7.606;2023-06-22T02:29:33;20.70;99.90
7502;DHT22;3792;47.740;7.606;2023-06-22T02:32:00;20.80;99.90
7502;DHT22;3792;47.740;7.606;2023-06-22T02:34:27;20.80;99.90
7502;DHT22;3792;47.740;7.606;2023-06-22T02:36:55;20.80;99.90
7502;DHT22;3792;47.740;7.606;2023-06-22T02:39:24;20.80;99.90
7502;DHT22;3792;47.740;7.606;2023-06-22T02:41:53;20.70;99.90
7502;DHT22;3792;47.740;7.606;2023-06-22T02:44:20;20.80;99.90
7502;DHT22;3792;47.740;7.606;2023-06-22T02:46:48;20.70;99.90
7502;DHT22;3792;47.740;7.606;2023-06-22T02:49:15;20.70;99.90
7502;DHT22;3792;47.740;7.606;2023-06-22T02:51:45;20.60;99.90
7502;DHT22;3792;47.740;7.606;2023-06-22T02:54:14;20.50;99.90
7502;DHT22;3792;47.740;7.606;2023-06-22T02:56:42;20.50;99.90
7502;DHT22;3792;47.740;7.606;2023-06-22T02:59:10;20.50;99.90
7502;DHT22;3792;47.740;7.606;2023-06-22T03:01:37;20.50;99.90
7502;DHT22;3792;47.740;7.606;2023-06-22T03:04:06;20.60;99.90
7502;DHT22;3792;47.740;7.606;2023-06-22T03:06:34;20.70;99.90
7502;DHT22;3792;47.740;7.606;2023-06-22T03:09:02;20.70;99.90
7502;DHT22;3792;47.740;7.606;2023-06-22T03:11:32;20.70;99.90
7502;DHT22;3792;47.740;7.606;2023-06-22T03:13:59;20.70;99.90
7502;DHT22;3792;47.740;7.606;2023-06-22T03:16:26;20.60;99.90
7502;DHT22;3792;47.740;7.606;2023-06-22T03:18:53;20.60;99.90
7502;DHT22;3792;47.740;7.606;2023-06-22T03:21:22;20.60;99.90
7502;DHT22;3792;47.740;7.606;2023-06-22T03:23:49;20.50;99.90
7502;DHT22;3792;47.740;7.606;2023-06-22T03:26:17;20.50;99.90
7502;DHT22;3792;47.740;7.606;2023-06-22T03:28:46;20.50;99.90
7502;DHT22;3792;47.740;7.606;2023-06-22T03:31:13;20.50;99.90
7502;DHT22;3792;47.740;7.606;2023-06-22T03:33:40;20.50;99.90
7502;DHT22;3792;47.740;7.606;2023-06-22T03:36:07;20.50;99.90
7502;DHT22;3792;47.740;7.606;2023-06-22T03:38:35;20.40;99.90
7502;DHT22;3792;47.740;7.606;2023-06-22T03:41:02;20.30;99.90
7502;DHT22;3792;47.740;7.606;2023-06-22T03:43:29;20.30;99.90
7502;DHT22;3792;47.740;7.606;2023-06-22T03:45:57;20.40;99.90
7502;DHT22;3792;47.740;7.606;2023-06-22T03:48:24;20.40;99.90
7502;DHT22;3792;47.740;7.606;2023-06-22T03:50:52;20.40;99.90
7502;DHT22;3792;47.740;7.606;2023-06-22T03:53:19;20.30;99.90
7502;DHT22;3792;47.740;7.606;2023-06-22T03:55:49;20.40;99.90
7502;DHT22;3792;47.740;7.606;2023-06-22T03:58:17;20.40;99.90
7502;DHT22;3792;47.740;7.606;2023-06-22T04:00:45;20.40;99.90
7502;DHT22;3792;47.740;7.606;2023-06-22T04:03:14;20.40;99.90
7502;DHT22;3792;47.740;7.606;2023-06-22T04:05:41;20.30;99.90
7502;DHT22;3792;47.740;7.606;2023-06-22T04:08:08;20.20;99.90
7502;DHT22;3792;47.740;7.606;2023-06-22T04:10:35;19.90;99.90
7502;DHT22;3792;47.740;7.606;2023-06-22T04:13:03;19.80;99.90
7502;DHT22;3792;47.740;7.606;2023-06-22T04:15:30;19.80;99.90
7502;DHT22;3792;47.740;7.606;2023-06-22T04:17:57;19.90;99.90
7502;DHT22;3792;47.740;7.606;2023-06-22T04:20:25;20.00;99.90
7502;DHT22;3792;47.740;7.606;2023-06-22T04:22:52;20.00;99.90
7502;DHT22;3792;47.740;7.606;2023-06-22T04:25:20;20.00;99.90
7502;DHT22;3792;47.740;7.606;2023-06-22T04:27:47;20.10;99.90
7502;DHT22;3792;47.740;7.606;2023-06-22T04:30:14;20.30;99.90
7502;DHT22;3792;47.740;7.606;2023-06-22T04:32:42;20.30;99.90
7502;DHT22;3792;47.740;7.606;2023-06-22T04:35:10;20.40;99.90
7502;DHT22;3792;47.740;7.606;2023-06-22T04:37:38;20.40;99.90
7502;DHT22;3792;47.740;7.606;2023-06-22T04:40:06;20.10;99.90
7502;DHT22;3792;47.740;7.606;2023-06-22T04:42:34;19.80;99.90
7502;DHT22;3792;47.740;7.606;2023-06-22T04:45:03;19.80;99.90
7502;DHT22;3792;47.740;7.606;2023-06-22T04:47:30;19.90;99.90
7502;DHT22;3792;47.740;7.606;2023-06-22T04:49:57;20.00;99.90
7502;DHT22;3792;47.740;7.606;2023-06-22T04:52:24;20.30;99.90
7502;DHT22;3792;47.740;7.606;2023-06-22T04:54:53;20.40;99.90
7502;DHT22;3792;47.740;7.606;2023-06-22T04:57:25;20.50;99.90
7502;DHT22;3792;47.740;7.606;2023-06-22T04:59:58;20.50;99.90
7502;DHT22;3792;47.740;7.606;2023-06-22T05:02:32;20.60;99.90
7502;DHT22;3792;47.740;7.606;2023-06-22T05:04:59;20.60;99.90
7502;DHT22;3792;47.740;7.606;2023-06-22T05:07:32;20.70;99.90
7502;DHT22;3792;47.740;7.606;2023-06-22T05:10:01;20.70;99.90
7502;DHT22;3792;47.740;7.606;2023-06-22T05:12:29;20.80;99.90
7502;DHT22;3792;47.740;7.606;2023-06-22T05:14:56;20.80;99.90
7502;DHT22;3792;47.740;7.606;2023-06-22T05:17:23;20.80;99.90
7502;DHT22;3792;47.740;7.606;2023-06-22T05:19:51;20.70;99.90
7502;DHT22;3792;47.740;7.606;2023-06-22T05:22:18;20.80;99.90
7502;DHT22;3792;47.740;7.606;2023-06-22T05:24:46;20.90;99.90
7502;DHT22;3792;47.740;7.606;2023-06-22T05:27:14;20.80;99.90
7502;DHT22;3792;47.740;7.606;2023-06-22T05:32:44;21.00;99.90
7502;DHT22;3792;47.740;7.606;2023-06-22T05:35:11;21.20;99.90
7502;DHT22;3792;47.740;7.606;2023-06-22T05:37:38;21.30;99.90
7502;DHT22;3792;47.740;7.606;2023-06-22T05:40:06;21.40;99.90
7502;DHT22;3792;47.740;7.606;2023-06-22T05:42:36;21.50;99.90
7502;DHT22;3792;47.740;7.606;2023-06-22T05:45:04;21.70;99.90
7502;DHT22;3792;47.740;7.606;2023-06-22T05:47:31;21.80;99.90
7502;DHT22;3792;47.740;7.606;2023-06-22T05:49:58;22.00;99.90
7502;DHT22;3792;47.740;7.606;2023-06-22T05:52:25;22.10;99.90
7502;DHT22;3792;47.740;7.606;2023-06-22T05:54:52;22.20;99.90
7502;DHT22;3792;47.740;7.606;2023-06-22T05:57:20;22.20;99.90
7502;DHT22;3792;47.740;7.606;2023-06-22T05:59:49;22.30;99.90
7502;DHT22;3792;47.740;7.606;2023-06-22T06:02:17;22.10;99.90
7502;DHT22;3792;47.740;7.606;2023-06-22T06:04:44;21.90;99.90
7502;DHT22;3792;47.740;7.606;2023-06-22T06:07:11;21.50;99.90
7502;DHT22;3792;47.740;7.606;2023-06-22T06:09:38;21.20;99.90
7502;DHT22;3792;47.740;7.606;2023-06-22T06:12:06;21.20;99.90
7502;DHT22;3792;47.740;7.606;2023-06-22T06:14:33;21.20;99.90
7502;DHT22;3792;47.740;7.606;2023-06-22T06:17:02;21.30;99.90
7502;DHT22;3792;47.740;7.606;2023-06-22T06:19:29;21.30;99.90
7502;DHT22;3792;47.740;7.606;2023-06-22T06:21:56;21.30;99.90
7502;DHT22;3792;47.740;7.606;2023-06-22T06:24:23;21.40;99.90
7502;DHT22;3792;47.740;7.606;2023-06-22T06:26:50;21.50;99.90
7502;DHT22;3792;47.740;7.606;2023-06-22T06:29:17;21.50;99.90
7502;DHT22;3792;47.740;7.606;2023-06-22T06:31:46;21.50;99.90
7502;DHT22;3792;47.740;7.606;2023-06-22T06:34:15;21.50;99.90
7502;DHT22;3792;47.740;7.606;2023-06-22T06:36:42;21.50;99.90
7502;DHT22;3792;47.740;7.606;2023-06-22T06:39:10;21.50;99.90
7502;DHT22;3792;47.740;7.606;2023-06-22T06:41:37;21.40;99.90
7502;DHT22;3792;47.740;7.606;2023-06-22T06:44:04;21.40;99.90
7502;DHT22;3792;47.740;7.606;2023-06-22T06:46:31;21.40;99.90
7502;DHT22;3792;47.740;7.606;2023-06-22T06:48:58;21.40;99.90
7502;DHT22;3792;47.740;7.606;2023-06-22T06:51:27;21.40;99.90
7502;DHT22;3792;47.740;7.606;2023-06-22T06:53:54;21.50;99.90
7502;DHT22;3792;47.740;7.606;2023-06-22T06:56:21;21.50;99.90
7502;DHT22;3792;47.740;7.606;2023-06-22T06:58:50;21.50;99.90
7502;DHT22;3792;47.740;7.606;2023-06-22T07:01:17;21.40;99.90
7502;DHT22;3792;47.740;7.606;2023-06-22T07:03:45;21.40;99.90
7502;DHT22;3792;47.740;7.606;2023-06-22T07:06:13;21.40;99.90
7502;DHT22;3792;47.740;7.606;2023-06-22T07:08:43;21.40;99.90
7502;DHT22;3792;47.740;7.606;2023-06-22T07:11:10;21.40;99.90
7502;DHT22;3792;47.740;7.606;2023-06-22T07:13:37;21.30;99.90
7502;DHT22;3792;47.740;7.606;2023-06-22T07:16:04;21.30;99.90
7502;DHT22;3792;47.740;7.606;2023-06-22T07:18:31;21.20;99.90
7502;DHT22;3792;47.740;7.606;2023-06-22T07:20:58;21.20;99.90
7502;DHT22;3792;47.740;7.606;2023-06-22T07:23:26;21.30;99.90
7502;DHT22;3792;47.740;7.606;2023-06-22T07:25:54;21.40;99.90
7502;DHT22;3792;47.740;7.606;2023-06-22T07:28:21;21.50;99.90
7502;DHT22;3792;47.740;7.606;2023-06-22T07:30:48;21.70;99.90
7502;DHT22;3792;47.740;7.606;2023-06-22T07:33:16;21.80;99.90
7502;DHT22;3792;47.740;7.606;2023-06-22T07:35:44;21.80;99.90
7502;DHT22;3792;47.740;7.606;2023-06-22T07:38:12;21.90;99.90
7502;DHT22;3792;47.740;7.606;2023-06-22T07:40:40;21.90;99.90
7502;DHT22;3792;47.740;7.606;2023-06-22T07:43:09;21.90;99.90
7502;DHT22;3792;47.740;7.606;2023-06-22T07:45:38;21.90;99.90
7502;DHT22;3792;47.740;7.606;2023-06-22T07:48:07;22.00;99.90
7502;DHT22;3792;47.740;7.606;2023-06-22T07:50:34;22.10;99.90
7502;DHT22;3792;47.740;7.606;2023-06-22T07:53:01;22.20;99.90
7502;DHT22;3792;47.740;7.606;2023-06-22T07:55:28;22.30;99.90
7502;DHT22;3792;47.740;7.606;2023-06-22T07:57:55;22.30;99.90
7502;DHT22;3792;47.740;7.606;2023-06-22T08:00:25;22.40;99.90
7502;DHT22;3792;47.740;7.606;2023-06-22T08:02:53;22.50;99.90
7502;DHT22;3792;47.740;7.606;2023-06-22T08:05:20;22.60;99.90
7502;DHT22;3792;47.740;7.606;2023-06-22T08:07:48;22.70;99.90
7502;DHT22;3792;47.740;7.606;2023-06-22T08:10:15;22.90;99.90
7502;DHT22;3792;47.740;7.606;2023-06-22T08:12:42;23.10;99.90
7502;DHT22;3792;47.740;7.606;2023-06-22T08:15:09;23.30;99.90
7502;DHT22;3792;47.740;7.606;2023-06-22T08:17:38;23.40;99.90
7502;DHT22;3792;47.740;7.606;2023-06-22T08:20:06;23.50;99.90
7502;DHT22;3792;47.740;7.606;2023-06-22T08:22:37;23.60;99.90
7502;DHT22;3792;47.740;7.606;2023-06-22T08:25:05;23.70;99.90
7502;DHT22;3792;47.740;7.606;2023-06-22T08:27:33;23.80;99.90
7502;DHT22;3792;47.740;7.606;2023-06-22T08:30:00;23.90;99.90
7502;DHT22;3792;47.740;7.606;2023-06-22T08:32:27;24.00;99.90
7502;DHT22;3792;47.740;7.606;2023-06-22T08:34:56;24.20;99.90
7502;DHT22;3792;47.740;7.606;2023-06-22T08:37:23;24.40;99.90
7502;DHT22;3792;47.740;7.606;2023-06-22T08:39:56;24.40;99.90
7502;DHT22;3792;47.740;7.606;2023-06-22T08:42:23;24.20;99.90
7502;DHT22;3792;47.740;7.606;2023-06-22T08:44:51;24.00;99.90
7502;DHT22;3792;47.740;7.606;2023-06-22T08:47:19;23.90;99.90
7502;DHT22;3792;47.740;7.606;2023-06-22T08:49:47;24.00;99.90
7502;DHT22;3792;47.740;7.606;2023-06-22T08:52:16;24.00;99.90
7502;DHT22;3792;47.740;7.606;2023-06-22T08:54:44;24.20;99.90
7502;DHT22;3792;47.740;7.606;2023-06-22T08:57:11;24.30;99.90
7502;DHT22;3792;47.740;7.606;2023-06-22T08:59:38;24.40;99.90
7502;DHT22;3792;47.740;7.606;2023-06-22T09:02:05;24.60;99.90
7502;DHT22;3792;47.740;7.606;2023-06-22T09:04:32;24.70;99.90
7502;DHT22;3792;47.740;7.606;2023-06-22T09:07:00;24.80;99.90
7502;DHT22;3792;47.740;7.606;2023-06-22T09:09:29;24.90;99.90
7502;DHT22;3792;47.740;7.606;2023-06-22T09:11:56;25.00;99.90
7502;DHT22;3792;47.740;7.606;2023-06-22T09:14:23;25.00;99.90
7502;DHT22;3792;47.740;7.606;2023-06-22T09:16:50;25.10;99.90
7502;DHT22;3792;47.740;7.606;2023-06-22T09:19:17;25.00;99.90
7502;DHT22;3792;47.740;7.606;2023-06-22T09:21:44;25.00;99.90
7502;DHT22;3792;47.740;7.606;2023-06-22T09:24:11;24.90;99.90
7502;DHT22;3792;47.740;7.606;2023-06-22T09:26:39;24.80;99.90
7502;DHT22;3792;47.740;7.606;2023-06-22T09:29:06;24.80;99.90
7502;DHT22;3792;47.740;7.606;2023-06-22T09:31:33;24.80;99.90
7502;DHT22;3792;47.740;7.606;2023-06-22T09:34:00;24.80;99.90
7502;DHT22;3792;47.740;7.606;2023-06-22T09:36:27;24.80;99.90
7502;DHT22;3792;47.740;7.606;2023-06-22T09:38:55;24.90;99.90
7502;DHT22;3792;47.740;7.606;2023-06-22T09:41:24;25.00;99.90
7502;DHT22;3792;47.740;7.606;2023-06-22T09:43:53;25.00;99.90
7502;DHT22;3792;47.740;7.606;2023-06-22T09:46:20;25.10;99.90
7502;DHT22;3792;47.740;7.606;2023-06-22T09:48:50;25.20;99.90
7502;DHT22;3792;47.740;7.606;2023-06-22T09:51:17;25.30;99.90
7502;DHT22;3792;47.740;7.606;2023-06-22T09:53:45;25.40;99.90
7502;DHT22;3792;47.740;7.606;2023-06-22T09:56:12;25.50;99.90
7502;DHT22;3792;47.740;7.606;2023-06-22T09:58:41;25.50;99.90
7502;DHT22;3792;47.740;7.606;2023-06-22T10:01:10;25.50;99.90
7502;DHT22;3792;47.740;7.606;2023-06-22T10:03:37;25.40;99.90
7502;DHT22;3792;47.740;7.606;2023-06-22T10:06:04;25.40;99.90
7502;DHT22;3792;47.740;7.606;2023-06-22T10:08:31;25.30;99.90
7502;DHT22;3792;47.740;7.606;2023-06-22T10:10:58;25.20;99.90
7502;DHT22;3792;47.740;7.606;2023-06-22T10:13:25;25.20;99.90
7502;DHT22;3792;47.740;7.606;2023-06-22T10:15:52;25.20;99.90
7502;DHT22;3792;47.740;7.606;2023-06-22T10:18:21;25.10;99.90
7502;DHT22;3792;47.740;7.606;2023-06-22T10:20:49;25.10;99.90
7502;DHT22;3792;47.740;7.606;2023-06-22T10:23:17;25.00;99.90
7502;DHT22;3792;47.740;7.606;2023-06-22T10:25:45;25.00;99.90
7502;DHT22;3792;47.740;7.606;2023-06-22T10:28:12;25.00;99.90
7502;DHT22;3792;47.740;7.606;2023-06-22T10:30:39;25.00;99.90
7502;DHT22;3792;47.740;7.606;2023-06-22T10:33:07;25.00;99.90
7502;DHT22;3792;47.740;7.606;2023-06-22T10:35:35;25.00;99.90
7502;DHT22;3792;47.740;7.606;2023-06-22T10:38:03;25.10;99.90
7502;DHT22;3792;47.740;7.606;2023-06-22T10:40:30;25.10;99.90
7502;DHT22;3792;47.740;7.606;2023-06-22T10:42:57;25.10;99.90
7502;DHT22;3792;47.740;7.606;2023-06-22T10:45:25;25.20;99.90
7502;DHT22;3792;47.740;7.606;2023-06-22T10:47:53;25.20;99.90
7502;DHT22;3792;47.740;7.606;2023-06-22T10:50:20;25.20;99.90
7502;DHT22;3792;47.740;7.606;2023-06-22T10:52:51;25.20;99.90
7502;DHT22;3792;47.740;7.606;2023-06-22T10:55:18;25.30;99.90
7502;DHT22;3792;47.740;7.606;2023-06-22T10:57:45;25.30;99.90
7502;DHT22;3792;47.740;7.606;2023-06-22T11:00:13;25.30;99.90
7502;DHT22;3792;47.740;7.606;2023-06-22T11:02:41;25.30;99.90
7502;DHT22;3792;47.740;7.606;2023-06-22T11:05:08;25.30;99.90
7502;DHT22;3792;47.740;7.606;2023-06-22T11:07:35;25.40;99.90
7502;DHT22;3792;47.740;7.606;2023-06-22T11:10:04;25.40;99.90
7502;DHT22;3792;47.740;7.606;2023-06-22T11:12:31;25.40;99.90
7502;DHT22;3792;47.740;7.606;2023-06-22T11:14:58;25.50;99.90
7502;DHT22;3792;47.740;7.606;2023-06-22T11:17:26;25.50;99.90
7502;DHT22;3792;47.740;7.606;2023-06-22T11:19:53;25.70;99.90
7502;DHT22;3792;47.740;7.606;2023-06-22T11:22:20;25.70;99.90
7502;DHT22;3792;47.740;7.606;2023-06-22T11:24:47;25.80;99.90
7502;DHT22;3792;47.740;7.606;2023-06-22T11:27:17;25.90;99.90
7502;DHT22;3792;47.740;7.606;2023-06-22T11:29:44;26.00;99.90
7502;DHT22;3792;47.740;7.606;2023-06-22T11:32:11;26.10;99.90
7502;DHT22;3792;47.740;7.606;2023-06-22T11:34:38;26.10;99.90
7502;DHT22;3792;47.740;7.606;2023-06-22T11:37:06;26.10;99.90
7502;DHT22;3792;47.740;7.606;2023-06-22T11:39:33;26.10;99.90
7502;DHT22;3792;47.740;7.606;2023-06-22T11:42:00;26.00;99.90
7502;DHT22;3792;47.740;7.606;2023-06-22T11:44:28;26.00;99.90
7502;DHT22;3792;47.740;7.606;2023-06-22T11:46:55;26.10;99.90
7502;DHT22;3792;47.740;7.606;2023-06-22T11:49:22;26.10;99.90
7502;DHT22;3792;47.740;7.606;2023-06-22T11:51:49;26.10;99.90
7502;DHT22;3792;47.740;7.606;2023-06-22T11:54:24;26.20;99.90
7502;DHT22;3792;47.740;7.606;2023-06-22T11:56:57;26.30;99.90
7502;DHT22;3792;47.740;7.606;2023-06-22T11:59:27;26.30;99.90
7502;DHT22;3792;47.740;7.606;2023-06-22T12:01:54;26.40;99.90
7502;DHT22;3792;47.740;7.606;2023-06-22T12:04:22;26.30;99.90
7502;DHT22;3792;47.740;7.606;2023-06-22T12:06:50;26.20;99.90
7502;DHT22;3792;47.740;7.606;2023-06-22T12:09:20;26.10;99.90
7502;DHT22;3792;47.740;7.606;2023-06-22T12:11:47;26.00;99.90
7502;DHT22;3792;47.740;7.606;2023-06-22T12:14:14;25.90;99.90
7502;DHT22;3792;47.740;7.606;2023-06-22T12:16:43;25.80;99.90
7502;DHT22;3792;47.740;7.606;2023-06-22T12:19:11;25.80;99.90
7502;DHT22;3792;47.740;7.606;2023-06-22T12:21:38;25.80;99.90
7502;DHT22;3792;47.740;7.606;2023-06-22T12:24:06;25.80;99.90
7502;DHT22;3792;47.740;7.606;2023-06-22T12:26:33;25.90;99.90
7502;DHT22;3792;47.740;7.606;2023-06-22T12:29:00;26.00;99.90
7502;DHT22;3792;47.740;7.606;2023-06-22T12:31:27;26.00;99.90
7502;DHT22;3792;47.740;7.606;2023-06-22T12:33:56;26.00;99.90
7502;DHT22;3792;47.740;7.606;2023-06-22T12:36:23;26.00;99.90
7502;DHT22;3792;47.740;7.606;2023-06-22T12:38:50;26.00;99.90
7502;DHT22;3792;47.740;7.606;2023-06-22T12:41:17;26.00;99.90
7502;DHT22;3792;47.740;7.606;2023-06-22T12:43:44;26.00;99.90
7502;DHT22;3792;47.740;7.606;2023-06-22T12:46:11;26.00;99.90
7502;DHT22;3792;47.740;7.606;2023-06-22T12:48:38;26.00;99.90
7502;DHT22;3792;47.740;7.606;2023-06-22T12:51:09;26.00;99.90
7502;DHT22;3792;47.740;7.606;2023-06-22T12:53:36;26.00;99.90
7502;DHT22;3792;47.740;7.606;2023-06-22T12:56:03;26.00;99.90
7502;DHT22;3792;47.740;7.606;2023-06-22T12:58:30;26.00;99.90
7502;DHT22;3792;47.740;7.606;2023-06-22T13:00:58;26.10;99.90
7502;DHT22;3792;47.740;7.606;2023-06-22T13:03:25;26.10;99.90
7502;DHT22;3792;47.740;7.606;2023-06-22T13:05:53;26.00;99.90
7502;DHT22;3792;47.740;7.606;2023-06-22T13:08:22;26.00;99.90
7502;DHT22;3792;47.740;7.606;2023-06-22T13:10:49;26.00;99.90
7502;DHT22;3792;47.740;7.606;2023-06-22T13:13:16;25.90;99.90
7502;DHT22;3792;47.740;7.606;2023-06-22T13:15:43;25.90;99.90
7502;DHT22;3792;47.740;7.606;2023-06-22T13:18:10;25.80;99.90
7502;DHT22;3792;47.740;7.606;2023-06-22T13:20:37;25.90;99.90
7502;DHT22;3792;47.740;7.606;2023-06-22T13:23:04;25.80;99.90
7502;DHT22;3792;47.740;7.606;2023-06-22T13:25:32;25.80;99.90
7502;DHT22;3792;47.740;7.606;2023-06-22T13:27:59;25.70;99.90
7502;DHT22;3792;47.740;7.606;2023-06-22T13:30:26;25.60;99.90
7502;DHT22;3792;47.740;7.606;2023-06-22T13:32:53;25.50;99.90
7502;DHT22;3792;47.740;7.606;2023-06-22T13:35:20;25.30;99.90
7502;DHT22;3792;47.740;7.606;2023-06-22T13:37:47;25.20;99.90
7502;DHT22;3792;47.740;7.606;2023-06-22T13:40:15;25.00;99.90
7502;DHT22;3792;47.740;7.606;2023-06-22T13:42:43;24.90;99.90
7502;DHT22;3792;47.740;7.606;2023-06-22T13:45:10;24.90;99.90
7502;DHT22;3792;47.740;7.606;2023-06-22T13:47:37;24.80;99.90
7502;DHT22;3792;47.740;7.606;2023-06-22T13:50:05;24.80;99.90
7502;DHT22;3792;47.740;7.606;2023-06-22T13:52:32;24.80;99.90
7502;DHT22;3792;47.740;7.606;2023-06-22T13:54:59;24.70;99.90
7502;DHT22;3792;47.740;7.606;2023-06-22T13:57:26;24.70;99.90
7502;DHT22;3792;47.740;7.606;2023-06-22T13:59:55;24.60;99.90
7502;DHT22;3792;47.740;7.606;2023-06-22T14:02:22;24.70;99.90
7502;DHT22;3792;47.740;7.606;2023-06-22T14:04:49;24.70;99.90
7502;DHT22;3792;47.740;7.606;2023-06-22T14:07:16;24.80;99.90
7502;DHT22;3792;47.740;7.606;2023-06-22T14:09:44;24.80;99.90
7502;DHT22;3792;47.740;7.606;2023-06-22T14:12:12;24.80;99.90
7502;DHT22;3792;47.740;7.606;2023-06-22T14:14:39;24.80;99.90
7502;DHT22;3792;47.740;7.606;2023-06-22T14:17:07;24.80;99.90
7502;DHT22;3792;47.740;7.606;2023-06-22T14:19:34;25.00;99.90
7502;DHT22;3792;47.740;7.606;2023-06-22T14:22:02;25.20;99.90
7502;DHT22;3792;47.740;7.606;2023-06-22T14:24:29;25.40;99.90
7502;DHT22;3792;47.740;7.606;2023-06-22T14:26:56;25.50;99.90
7502;DHT22;3792;47.740;7.606;2023-06-22T14:29:23;25.60;99.90
7502;DHT22;3792;47.740;7.606;2023-06-22T14:31:50;25.50;99.90
7502;DHT22;3792;47.740;7.606;2023-06-22T14:34:18;25.50;99.90
7502;DHT22;3792;47.740;7.606;2023-06-22T14:36:45;25.50;99.90
7502;DHT22;3792;47.740;7.606;2023-06-22T14:39:12;25.40;99.90
7502;DHT22;3792;47.740;7.606;2023-06-22T14:41:39;25.40;99.90
7502;DHT22;3792;47.740;7.606;2023-06-22T14:44:06;25.40;99.90
7502;DHT22;3792;47.740;7.606;2023-06-22T14:46:33;25.40;99.90
7502;DHT22;3792;47.740;7.606;2023-06-22T14:49:00;25.40;99.90
7502;DHT22;3792;47.740;7.606;2023-06-22T14:51:29;25.50;99.90
7502;DHT22;3792;47.740;7.606;2023-06-22T14:53:56;25.80;99.90
7502;DHT22;3792;47.740;7.606;2023-06-22T14:56:23;26.30;99.90
7502;DHT22;3792;47.740;7.606;2023-06-22T14:58:50;26.60;99.90
7502;DHT22;3792;47.740;7.606;2023-06-22T15:01:17;26.80;99.90
7502;DHT22;3792;47.740;7.606;2023-06-22T15:03:45;26.90;99.90
7502;DHT22;3792;47.740;7.606;2023-06-22T15:06:12;26.90;99.90
7502;DHT22;3792;47.740;7.606;2023-06-22T15:08:40;26.90;99.90
7502;DHT22;3792;47.740;7.606;2023-06-22T15:11:07;26.80;99.90
7502;DHT22;3792;47.740;7.606;2023-06-22T15:13:35;26.70;99.90
7502;DHT22;3792;47.740;7.606;2023-06-22T15:16:05;26.50;99.90
7502;DHT22;3792;47.740;7.606;2023-06-22T15:18:32;26.40;99.90
7502;DHT22;3792;47.740;7.606;2023-06-22T15:21:01;26.30;99.90
7502;DHT22;3792;47.740;7.606;2023-06-22T15:23:28;26.20;99.90
7502;DHT22;3792;47.740;7.606;2023-06-22T15:25:57;26.10;99.90
7502;DHT22;3792;47.740;7.606;2023-06-22T15:28:24;26.00;99.90
7502;DHT22;3792;47.740;7.606;2023-06-22T15:30:51;26.00;99.90
7502;DHT22;3792;47.740;7.606;2023-06-22T15:33:19;25.90;99.90
7502;DHT22;3792;47.740;7.606;2023-06-22T15:35:46;25.90;99.90
7502;DHT22;3792;47.740;7.606;2023-06-22T15:38:13;25.80;99.90
7502;DHT22;3792;47.740;7.606;2023-06-22T15:40:43;25.90;99.90
7502;DHT22;3792;47.740;7.606;2023-06-22T15:43:12;26.00;99.90
7502;DHT22;3792;47.740;7.606;2023-06-22T15:45:39;26.00;99.90
7502;DHT22;3792;47.740;7.606;2023-06-22T15:48:06;26.00;99.90
7502;DHT22;3792;47.740;7.606;2023-06-22T15:50:33;26.00;99.90
7502;DHT22;3792;47.740;7.606;2023-06-22T15:53:00;25.90;99.90
7502;DHT22;3792;47.740;7.606;2023-06-22T15:55:27;25.80;99.90
7502;DHT22;3792;47.740;7.606;2023-06-22T15:57:56;25.70;99.90
7502;DHT22;3792;47.740;7.606;2023-06-22T16:00:26;25.60;99.90
7502;DHT22;3792;47.740;7.606;2023-06-22T16:02:53;25.60;99.90
7502;DHT22;3792;47.740;7.606;2023-06-22T16:05:20;25.50;99.90
7502;DHT22;3792;47.740;7.606;2023-06-22T16:07:47;25.50;99.90